»·PEaware :: PSV800 TIST-KTMB

PSV800 :: TIST-KTMB

FLIGHT INFORMATION

Flight Status: Arrived
Operator:
Power Set Virtual (website)
More flights by this operator :: More flights under this callsign
Pilot: Scott L. (17677)
Aircraft: CESSNA 510 CITATION MUSTANG
(C510)
More flights by this aircraft type
Origin: TIST St. Thomas - King
U.S. Virgin Islands
Destination: KTMB Kendall-Tamiami Executive
United States
More flights between these airports :: More routes between these airports
Route: SJU RTE6 BEANO Y290 HAGIT Y352 ZQA
File this flight plan on PilotEdge
Remarks:
Altitude:
(Current/Filed)
34,000ft
Speed:
(Current/Filed)
400kts
Departed: 26-Mar-20 10:44 AM
Arrived: 26-Mar-20 12:57 PM
Distance/Time
Traveled:
964nm/2:13
Distance/Time
To Go:
Arrived

Flight Plot

Page will automatically refresh every two minutes.


Map Options




Map Legend


Flown Route
Filed Route
Departure Airport
Arrival Airport
Navaid (VOR, NDB)
Fix

Horizontal Profiles

Position Reports

Time Latitude Longitude Heading Altitude Ground
Speed
26-Mar-20 10:42 20.204611 -68.908035 308 34052ft 379kts
26-Mar-20 10:43 20.265433 -69.000683 308 34051ft 379kts
26-Mar-20 10:44 20.325812 -69.092686 309 34047ft 377kts
26-Mar-20 10:45 20.385985 -69.184177 310 34048ft 376kts
26-Mar-20 10:46 20.446176 -69.275883 310 34049ft 375kts
26-Mar-20 10:47 20.506019 -69.367317 309 34045ft 374kts
26-Mar-20 10:48 20.565689 -69.458694 309 34044ft 374kts
26-Mar-20 10:49 20.625094 -69.549852 310 34044ft 374kts
26-Mar-20 10:50 20.685011 -69.641760 309 34043ft 373kts
26-Mar-20 10:51 20.744831 -69.733888 309 34044ft 374kts
26-Mar-20 10:52 20.804137 -69.825259 309 34043ft 374kts
26-Mar-20 10:53 20.863346 -69.916649 309 34041ft 374kts
26-Mar-20 10:54 20.922676 -70.008332 309 34043ft 374kts
26-Mar-20 10:55 20.981843 -70.100105 309 34042ft 373kts
26-Mar-20 10:56 21.040889 -70.191712 310 34038ft 369kts
26-Mar-20 10:57 21.098724 -70.281467 310 34035ft 360kts
26-Mar-20 10:58 21.154453 -70.368152 310 34050ft 355kts
26-Mar-20 10:59 21.210285 -70.455191 310 34049ft 353kts
26-Mar-20 11:00 21.265685 -70.541618 310 34047ft 351kts
26-Mar-20 11:01 21.321299 -70.628556 310 34046ft 350kts
26-Mar-20 11:02 21.376795 -70.715164 309 34050ft 351kts
26-Mar-20 11:03 21.432146 -70.802048 309 34050ft 352kts
26-Mar-20 11:04 21.487446 -70.889217 309 34048ft 353kts
26-Mar-20 11:05 21.543071 -70.976782 309 34046ft 354kts
26-Mar-20 11:06 21.597522 -71.066183 307 34046ft 358kts
26-Mar-20 11:07 21.649977 -71.157807 307 34044ft 359kts
26-Mar-20 11:08 21.702648 -71.250194 307 34042ft 360kts
26-Mar-20 11:09 21.755109 -71.342419 307 34041ft 360kts
26-Mar-20 11:10 21.807457 -71.434586 307 34040ft 360kts
26-Mar-20 11:11 21.859612 -71.526582 307 34038ft 360kts
26-Mar-20 11:12 21.911700 -71.618646 307 34027ft 360kts
26-Mar-20 11:13 21.963991 -71.711291 307 34021ft 360kts
26-Mar-20 11:14 22.016045 -71.803561 307 34012ft 360kts
26-Mar-20 11:15 22.067916 -71.895708 307 34011ft 360kts
26-Mar-20 11:16 22.120082 -71.988495 307 34027ft 361kts
26-Mar-20 11:17 22.172234 -72.081446 307 34026ft 362kts
26-Mar-20 11:18 22.224362 -72.174524 307 34024ft 363kts
26-Mar-20 11:19 22.276460 -72.267763 307 34022ft 363kts
26-Mar-20 11:20 22.328538 -72.361087 307 34021ft 363kts
26-Mar-20 11:21 22.380502 -72.454405 307 34020ft 362kts
26-Mar-20 11:22 22.432448 -72.547814 307 34018ft 362kts
26-Mar-20 11:23 22.484195 -72.641028 307 34017ft 362kts
26-Mar-20 11:24 22.536073 -72.734703 306 34020ft 362kts
26-Mar-20 11:25 22.587833 -72.828281 307 34019ft 362kts
26-Mar-20 11:26 22.639399 -72.921611 306 34018ft 362kts
26-Mar-20 11:27 22.691051 -73.015462 307 34016ft 363kts
26-Mar-20 11:28 22.742913 -73.109717 307 34015ft 366kts
26-Mar-20 11:29 22.795504 -73.205406 307 34015ft 370kts
26-Mar-20 11:30 22.848321 -73.301808 307 34015ft 373kts
26-Mar-20 11:31 22.901395 -73.398775 306 34014ft 374kts
26-Mar-20 11:32 22.954557 -73.496028 306 34012ft 373kts
26-Mar-20 11:33 23.007186 -73.592574 306 34010ft 371kts
26-Mar-20 11:34 23.059696 -73.689217 305 34013ft 369kts
26-Mar-20 11:35 23.111498 -73.784696 305 34027ft 368kts
26-Mar-20 11:36 23.163594 -73.880878 305 34026ft 369kts
26-Mar-20 11:37 23.215571 -73.976960 305 34024ft 369kts
26-Mar-20 11:38 23.267694 -74.073564 305 34023ft 369kts
26-Mar-20 11:39 23.319575 -74.169839 305 34022ft 369kts
26-Mar-20 11:41 23.371595 -74.266579 305 34021ft 369kts
26-Mar-20 11:42 23.423470 -74.363218 305 34019ft 369kts
26-Mar-20 11:43 23.475268 -74.459955 305 34018ft 369kts
26-Mar-20 11:44 23.526883 -74.556486 305 34017ft 368kts
26-Mar-20 11:45 23.578425 -74.653047 305 34017ft 368kts
26-Mar-20 11:46 23.629745 -74.749461 305 34051ft 368kts
26-Mar-20 11:47 23.681153 -74.846177 305 34082ft 368kts
26-Mar-20 11:48 23.732445 -74.942862 305 34097ft 369kts
26-Mar-20 11:49 23.784007 -75.040196 305 34096ft 373kts
26-Mar-20 11:50 23.836250 -75.139025 305 34096ft 378kts
26-Mar-20 11:51 23.888943 -75.238984 305 34095ft 381kts
26-Mar-20 11:52 23.941755 -75.339364 305 34094ft 382kts
26-Mar-20 11:53 23.994623 -75.440044 305 34094ft 383kts
26-Mar-20 11:54 24.047624 -75.541185 305 34093ft 383kts
26-Mar-20 11:55 24.100125 -75.641569 305 34092ft 383kts
26-Mar-20 11:56 24.153500 -75.743841 304 34105ft 384kts
26-Mar-20 11:57 24.206454 -75.845508 304 34104ft 385kts
26-Mar-20 11:58 24.259478 -75.947537 304 34103ft 386kts
26-Mar-20 11:58 24.303610 -76.032619 304 34103ft 386kts
26-Mar-20 12:00 24.365409 -76.152016 304 34102ft 386kts
26-Mar-20 12:01 24.418308 -76.254450 304 34101ft 385kts
26-Mar-20 12:02 24.471069 -76.356838 304 34100ft 385kts
26-Mar-20 12:03 24.523914 -76.459593 304 34096ft 385kts
26-Mar-20 12:03 24.567765 -76.545047 304 34089ft 385kts
26-Mar-20 12:04 24.620165 -76.647369 304 34089ft 385kts
26-Mar-20 12:05 24.672787 -76.750352 304 34089ft 385kts
26-Mar-20 12:06 24.725074 -76.852777 304 34089ft 385kts
26-Mar-20 12:07 24.777520 -76.955698 303 34088ft 385kts
26-Mar-20 12:08 24.829998 -77.059040 303 34087ft 386kts
26-Mar-20 12:09 24.882167 -77.162205 303 34087ft 386kts
26-Mar-20 12:10 24.934691 -77.266173 303 34086ft 386kts
26-Mar-20 12:11 24.987048 -77.369978 303 34085ft 386kts
26-Mar-20 12:12 25.032104 -77.477962 289 34092ft 392kts
26-Mar-20 12:13 25.057842 -77.594573 289 34083ft 391kts
26-Mar-20 12:14 25.083388 -77.711489 288 34086ft 390kts
26-Mar-20 12:15 25.108771 -77.828332 288 34097ft 389kts
26-Mar-20 12:16 25.133986 -77.944966 288 34095ft 389kts
26-Mar-20 12:17 25.159136 -78.061811 288 34095ft 389kts
26-Mar-20 12:18 25.184179 -78.178571 288 34094ft 389kts
26-Mar-20 12:19 25.211417 -78.293467 297 34087ft 383kts
26-Mar-20 12:20 25.179900 -78.409194 254 33212ft 431kts
26-Mar-20 12:21 25.140002 -78.535406 257 31148ft 439kts
26-Mar-20 12:22 25.101738 -78.660326 256 29107ft 440kts
26-Mar-20 12:23 25.067079 -78.772972 256 27686ft 434kts
26-Mar-20 12:24 25.029518 -78.894447 256 25804ft 401kts
26-Mar-20 12:25 24.994455 -79.007958 255 23726ft 385kts
26-Mar-20 12:26 24.960168 -79.118651 255 21635ft 376kts
26-Mar-20 12:27 24.965197 -79.222290 312 19486ft 352kts
26-Mar-20 12:28 25.030723 -79.301670 313 17396ft 348kts
26-Mar-20 12:29 25.096556 -79.379560 314 15302ft 347kts
26-Mar-20 12:30 25.162576 -79.457365 314 13417ft 341kts
26-Mar-20 12:31 25.221639 -79.527190 314 10392ft 284kts
26-Mar-20 12:32 25.274241 -79.589481 315 6975ft 274kts
26-Mar-20 12:33 25.323413 -79.647477 315 6065ft 246kts
26-Mar-20 12:34 25.370401 -79.702967 315 6064ft 246kts
26-Mar-20 12:35 25.414247 -79.761954 308 6064ft 247kts
26-Mar-20 12:36 25.455260 -79.823937 308 6065ft 247kts
26-Mar-20 12:37 25.496187 -79.885897 308 6069ft 245kts
26-Mar-20 12:38 25.536951 -79.947773 307 5836ft 253kts
26-Mar-20 12:39 25.579877 -80.012994 307 4838ft 264kts
26-Mar-20 12:40 25.623331 -80.079187 307 4076ft 257kts
26-Mar-20 12:41 25.663507 -80.142772 291 4067ft 248kts
26-Mar-20 12:42 25.682776 -80.216301 288 4081ft 247kts
26-Mar-20 12:43 25.702111 -80.289849 287 4081ft 247kts
26-Mar-20 12:44 25.708323 -80.365474 268 4081ft 245kts
26-Mar-20 12:45 25.705096 -80.433480 269 3805ft 221kts
26-Mar-20 12:46 25.689660 -80.504713 250 3079ft 236kts
26-Mar-20 12:47 25.666348 -80.571556 250 3081ft 228kts
26-Mar-20 12:48 25.643096 -80.641251 264 2081ft 248kts
26-Mar-20 12:49 25.638876 -80.714450 261 2120ft 228kts
26-Mar-20 12:50 25.596828 -80.713327 91 2504ft 216kts
26-Mar-20 12:51 25.625303 -80.655857 56 2936ft 212kts
26-Mar-20 12:52 25.645932 -80.592753 85 2612ft 236kts
26-Mar-20 12:53 25.648982 -80.524349 86 1513ft 196kts
26-Mar-20 12:54 25.651149 -80.474284 86 641ft 126kts
26-Mar-20 12:55 25.652518 -80.441982 85 89ft 89kts
26-Mar-20 12:56 25.651311 -80.425309 228 8ft 22kts
26-Mar-20 12:57 25.651051 -80.426369 176 8ft 0kts

Navigation Log

Ident Type
Flight plan parsing failed, navigation log unavailable